Time;durP1;ratioP1;P1;durP2;ratioP2;P2;SDS_P1;SDS_P2;PMS_P1;PMS_P2;Temp;Humidity;BMP_temperature;BMP_pressure;BME280_temperature;BME280_humidity;BME280_pressure;Samples;Min_cycle;Max_cycle;Signal;HPM_P1;HPM_P2
2021/11/08 00:00:39;;;;;;;863.83;808.10;;;;;;;19.26;44.92;101886.28;5051738;28;20060;-37
2021/11/08 00:03:07;;;;;;;850.15;795.38;;;;;;;19.26;45.05;101872.97;5054525;28;20049;-37
2021/11/08 00:05:40;;;;;;;880.80;824.20;;;;;;;19.22;45.25;101879.47;5048070;28;20464;-38
2021/11/08 00:08:06;;;;;;;896.65;839.83;;;;;;;19.21;45.37;101879.63;5054591;28;20354;-37
2021/11/08 00:10:34;;;;;;;902.10;843.83;;;;;;;19.22;45.00;101878.63;5049724;28;20029;-38
2021/11/08 00:13:03;;;;;;;828.72;777.10;;;;;;;19.19;45.43;101869.91;5053215;28;20021;-38
2021/11/08 00:18:38;;;;;;;904.00;845.55;;;;;;;19.18;45.09;101859.38;5047777;28;20064;-38
2021/11/08 00:21:05;;;;;;;879.15;822.80;;;;;;;19.19;45.36;101858.44;5053772;28;20049;-37
2021/11/08 00:23:31;;;;;;;872.35;816.72;;;;;;;19.18;45.06;101856.72;5066756;28;20422;-38
2021/11/08 00:25:57;;;;;;;929.00;869.17;;;;;;;19.18;44.82;101846.91;5050734;28;20029;-37
2021/11/08 00:28:24;;;;;;;895.30;837.80;;;;;;;19.19;45.15;101842.44;5052423;28;20055;-38
2021/11/08 00:30:51;;;;;;;913.22;853.97;;;;;;;19.18;44.86;101832.75;5050942;28;20029;-38
2021/11/08 00:33:18;;;;;;;917.88;857.78;;;;;;;19.16;44.93;101826.72;5048399;28;20055;-38
2021/11/08 00:35:49;;;;;;;885.03;828.67;;;;;;;19.14;45.42;101837.47;5041320;28;20036;-38
2021/11/08 00:38:15;;;;;;;909.42;851.08;;;;;;;19.14;45.40;101841.97;5052698;28;20029;-38
2021/11/08 00:40:42;;;;;;;905.88;848.47;;;;;;;19.12;45.50;101842.06;5049582;28;20987;-37
2021/11/08 00:43:09;;;;;;;890.72;833.53;;;;;;;19.14;45.52;101847.28;5047267;28;20037;-38
2021/11/08 00:45:35;;;;;;;871.17;816.00;;;;;;;19.12;45.50;101854.56;5046482;28;20028;-37
2021/11/08 00:48:02;;;;;;;886.22;829.03;;;;;;;19.10;45.11;101848.50;5053490;28;20068;-38
2021/11/08 00:50:28;;;;;;;848.67;794.08;;;;;;;19.06;44.72;101861.22;5047029;28;20028;-37
2021/11/08 00:52:55;;;;;;;850.38;797.08;;;;;;;19.06;45.29;101868.31;5055859;28;20028;-38
2021/11/08 00:55:23;;;;;;;877.50;821.50;;;;;;;19.10;45.08;101875.97;5054804;28;20017;-38
2021/11/08 00:57:51;;;;;;;882.08;825.03;;;;;;;19.13;45.05;101878.41;5057975;28;20037;-37
2021/11/08 01:00:18;;;;;;;908.53;849.75;;;;;;;19.11;44.96;101879.47;5057639;28;20146;-37
2021/11/08 01:02:45;;;;;;;868.72;813.85;;;;;;;19.10;45.32;101869.81;5055163;28;20090;-37
2021/11/08 01:05:13;;;;;;;873.55;818.05;;;;;;;19.11;45.45;101871.47;5057740;28;20028;-38
2021/11/08 01:07:39;;;;;;;929.15;869.45;;;;;;;19.11;45.29;101871.47;5054399;28;20522;-37
2021/11/08 01:10:07;;;;;;;894.47;837.85;;;;;;;19.09;45.45;101873.41;5056074;28;20092;-37
2021/11/08 01:12:33;;;;;;;868.45;814.15;;;;;;;19.05;45.38;101878.13;5052088;28;20067;-37
2021/11/08 01:14:59;;;;;;;867.33;812.42;;;;;;;19.06;45.61;101868.31;5037550;28;20033;-37
2021/11/08 01:17:25;;;;;;;850.75;798.00;;;;;;;19.04;45.50;101868.44;5037566;28;20036;-37
2021/11/08 01:19:52;;;;;;;855.80;801.80;;;;;;;19.05;45.40;101869.31;5038496;28;20029;-37
2021/11/08 01:22:19;;;;;;;857.53;804.10;;;;;;;19.04;45.28;101878.25;5057758;28;20020;-37
2021/11/08 01:24:54;;;;;;;858.60;804.50;;;;;;;19.03;45.58;101885.41;5055053;28;20124;-37
2021/11/08 01:27:40;;;;;;;852.33;798.03;;;;;;;19.05;45.30;101885.28;5046229;28;20028;-37
2021/11/08 01:30:13;;;;;;;857.72;804.38;;;;;;;19.04;45.19;101892.41;5059143;28;20029;-38
2021/11/08 01:32:41;;;;;;;862.13;808.60;;;;;;;19.03;45.31;101889.84;5052928;28;20025;-38
2021/11/08 01:35:08;;;;;;;869.00;813.95;;;;;;;19.04;45.37;101899.56;5056503;28;20111;-38
2021/11/08 01:37:34;;;;;;;904.10;846.20;;;;;;;19.03;45.46;101896.06;5039461;28;21496;-37
2021/11/08 01:40:02;;;;;;;873.63;818.78;;;;;;;19.03;45.67;101895.19;5055066;28;20031;-38
2021/11/08 01:42:28;;;;;;;853.30;799.67;;;;;;;19.03;45.39;101896.06;5055831;28;20450;-37
2021/11/08 01:44:54;;;;;;;848.78;794.65;;;;;;;19.00;45.40;101893.63;5053646;28;20029;-37
2021/11/08 01:47:21;;;;;;;905.95;848.05;;;;;;;18.98;45.50;101893.72;5046565;28;20115;-37
2021/11/08 01:49:47;;;;;;;893.90;835.55;;;;;;;18.98;45.65;101895.56;5058265;28;20026;-37
2021/11/08 01:52:13;;;;;;;881.03;824.22;;;;;;;18.98;45.72;101899.06;5050973;28;20041;-37
2021/11/08 01:54:40;;;;;;;888.75;831.45;;;;;;;19.00;45.54;101891.78;5056831;28;20033;-37
2021/11/08 01:57:07;;;;;;;873.78;818.00;;;;;;;18.83;45.31;101862.97;5055708;28;20048;-37
2021/11/08 01:59:33;;;;;;;861.00;807.20;;;;;;;19.00;45.44;101885.63;5055310;28;20038;-37
2021/11/08 02:02:00;;;;;;;888.17;830.92;;;;;;;19.00;45.38;101893.63;5060945;28;20505;-37
2021/11/08 02:04:26;;;;;;;918.00;859.13;;;;;;;18.95;45.33;101885.13;5058050;28;20033;-36
2021/11/08 02:06:52;;;;;;;895.75;838.20;;;;;;;18.98;45.43;101887.56;5053254;28;20512;-37
2021/11/08 02:09:19;;;;;;;856.00;802.15;;;;;;;18.94;45.32;101889.63;5051035;28;20035;-37
2021/11/08 02:11:46;;;;;;;912.20;854.20;;;;;;;18.94;45.65;101894.94;5050509;28;20576;-37
2021/11/08 02:14:12;;;;;;;844.55;791.53;;;;;;;18.96;45.39;101890.34;5054995;28;20025;-37
2021/11/08 02:16:38;;;;;;;877.75;821.90;;;;;;;18.99;45.34;101895.44;5049891;28;20039;-37
2021/11/08 02:19:05;;;;;;;928.55;868.80;;;;;;;19.00;45.55;101897.13;5054956;28;20120;-37
2021/11/08 02:21:32;;;;;;;848.38;794.70;;;;;;;18.99;45.11;101891.91;5062354;28;20039;-37
2021/11/08 02:23:59;;;;;;;900.15;842.45;;;;;;;18.96;45.45;101885.03;5058925;28;20045;-37
2021/11/08 02:26:25;;;;;;;892.65;836.17;;;;;;;18.92;45.29;101883.56;5052875;28;20353;-37
2021/11/08 02:28:53;;;;;;;897.95;839.97;;;;;;;18.92;45.24;101880.91;5055205;28;20024;-37
2021/11/08 02:31:23;;;;;;;936.33;875.00;;;;;;;18.90;45.68;101892.63;5054247;28;20462;-37
2021/11/08 02:33:51;;;;;;;912.60;853.92;;;;;;;18.89;45.50;101896.25;5054806;28;20330;-37
2021/11/08 02:36:21;;;;;;;912.55;852.33;;;;;;;18.91;45.45;101894.31;5054729;28;20087;-37
2021/11/08 02:38:51;;;;;;;867.35;812.00;;;;;;;18.89;45.34;101894.44;5047860;28;20033;-37
2021/11/08 02:41:18;;;;;;;915.40;856.33;;;;;;;18.89;45.39;101891.78;5054370;28;20021;-37
2021/11/08 02:43:45;;;;;;;896.10;839.20;;;;;;;18.88;45.64;101890.06;5065237;28;20053;-37
2021/11/08 02:46:14;;;;;;;886.80;831.30;;;;;;;18.86;45.31;101886.69;5053972;28;20029;-37
2021/11/08 02:48:44;;;;;;;910.15;852.05;;;;;;;18.89;45.20;101894.44;5053803;28;20025;-37
2021/11/08 02:53:40;;;;;;;915.92;857.53;;;;;;;18.94;45.40;101902.94;5052487;28;20048;-36
2021/11/08 02:56:08;;;;;;;905.70;847.53;;;;;;;18.87;45.51;101901.69;5045521;28;20346;-37
2021/11/08 02:58:36;;;;;;;923.58;864.30;;;;;;;18.86;45.44;101900.00;5048556;28;20035;-37
2021/11/08 03:01:02;;;;;;;846.45;793.40;;;;;;;18.81;45.52;101883.50;5053264;28;20025;-37
2021/11/08 03:04:02;;;;;;;851.10;797.40;;;;;;;18.88;45.52;101889.22;5055392;28;20059;-36
2021/11/08 03:06:26;;;;;;;841.08;789.13;;;;;;;18.85;45.65;101900.09;5054250;28;20043;-36
2021/11/08 03:08:54;;;;;;;821.42;770.67;;;;;;;18.84;45.71;101885.13;5053611;28;20041;-36
2021/11/08 03:11:21;;;;;;;856.22;802.20;;;;;;;18.83;45.50;101883.41;5052189;28;20477;-37
2021/11/08 03:14:07;;;;;;;849.05;795.72;;;;;;;18.84;45.47;101880.63;5035437;28;20067;-37
2021/11/08 03:19:35;;;;;;;875.92;821.05;;;;;;;18.88;45.37;101890.06;5045183;28;20507;-37
2021/11/08 03:22:04;;;;;;;899.03;842.75;;;;;;;18.88;45.31;101884.75;5055332;28;20469;-37
2021/11/08 03:24:42;;;;;;;893.70;837.05;;;;;;;18.82;45.61;101895.88;5053994;28;20537;-37
2021/11/08 03:27:30;;;;;;;869.30;815.03;;;;;;;18.78;45.85;101891.72;5052473;28;20024;-37
2021/11/08 03:29:56;;;;;;;874.85;812.47;;;;;;;18.80;45.58;101893.28;5054450;28;20120;-34
2021/11/08 03:32:23;;;;;;;880.97;825.30;;;;;;;18.80;45.60;101889.78;5055413;28;20037;-36
2021/11/08 03:34:57;;;;;;;831.20;778.17;;;;;;;18.78;45.64;101889.91;5053493;28;20028;-36
2021/11/08 03:37:24;;;;;;;855.60;802.05;;;;;;;18.77;45.89;101890.03;5049924;28;20112;-36
2021/11/08 03:39:51;;;;;;;837.17;784.78;;;;;;;18.78;45.61;101883.75;5049607;28;20029;-36
2021/11/08 03:42:18;;;;;;;867.88;812.53;;;;;;;18.76;45.46;101888.31;5052269;28;20036;-36
2021/11/08 03:44:45;;;;;;;856.83;802.90;;;;;;;18.76;45.63;101891.84;5053658;28;20521;-36
2021/11/08 03:47:11;;;;;;;854.50;800.58;;;;;;;18.76;45.58;101880.31;5053523;28;20024;-35
2021/11/08 03:49:37;;;;;;;830.22;778.55;;;;;;;18.79;45.33;101875.63;5054315;28;20029;-36
2021/11/08 03:52:04;;;;;;;865.55;810.28;;;;;;;18.82;45.52;101874.59;5052417;28;20017;-36
2021/11/08 03:54:30;;;;;;;873.67;818.33;;;;;;;18.87;45.76;101883.06;5053296;28;20032;-36
2021/11/08 03:56:57;;;;;;;882.85;825.92;;;;;;;18.82;45.52;101879.91;5058460;28;20104;-36
2021/11/08 03:59:23;;;;;;;874.78;818.80;;;;;;;18.86;45.50;101891.16;5051126;28;20032;-36
2021/11/08 04:01:50;;;;;;;882.55;826.63;;;;;;;18.84;45.42;101893.09;5047732;28;20064;-36
2021/11/08 04:04:16;;;;;;;905.85;847.60;;;;;;;18.84;45.57;101891.28;5055590;28;20024;-36
2021/11/08 04:06:43;;;;;;;876.30;820.70;;;;;;;18.84;45.76;101893.94;5069868;28;20452;-36
2021/11/08 04:09:12;;;;;;;878.42;822.42;;;;;;;18.84;45.58;101890.44;5052804;28;20064;-36
2021/11/08 04:11:39;;;;;;;886.60;830.30;;;;;;;18.80;45.32;101900.44;5053065;28;20029;-36
2021/11/08 04:14:05;;;;;;;901.47;842.22;;;;;;;18.78;45.82;101897.06;5054187;28;20366;-36
2021/11/08 04:16:33;;;;;;;870.22;814.67;;;;;;;18.77;45.97;101898.00;5054424;28;21351;-36
2021/11/08 04:19:01;;;;;;;864.30;808.45;;;;;;;18.72;45.96;101893.03;5042744;28;20032;-36
2021/11/08 04:21:27;;;;;;;860.97;806.83;;;;;;;18.73;45.84;101896.56;5053820;28;20025;-36
2021/11/08 04:23:54;;;;;;;900.08;843.08;;;;;;;18.71;45.67;101896.66;5054280;28;20033;-36
2021/11/08 04:26:23;;;;;;;884.28;828.20;;;;;;;18.54;45.90;101867.81;5050732;28;20032;-36
2021/11/08 04:28:53;;;;;;;868.28;813.00;;;;;;;18.69;45.81;101892.41;5066955;28;20513;-36
2021/11/08 04:31:19;;;;;;;855.00;801.08;;;;;;;18.68;45.90;101880.91;5058080;28;20028;-35
2021/11/08 04:33:49;;;;;;;863.88;809.42;;;;;;;18.70;45.76;101883.47;5071658;28;20032;-35
2021/11/08 04:49:46;;;;;;;803.30;754.28;;;;;;;18.66;45.77;101888.19;5055409;28;20021;-35
2021/11/08 04:55:00;;;;;;;842.70;789.05;;;;;;;18.64;45.97;101879.47;5066320;28;20024;-35
2021/11/08 05:32:18;;;;;;;818.08;767.72;;;;;;;18.61;46.03;101904.47;5053737;28;20035;-35
2021/11/08 05:34:45;;;;;;;848.53;795.38;;;;;;;18.61;46.17;101895.66;5058064;28;20116;-35
2021/11/08 05:37:11;;;;;;;837.13;785.10;;;;;;;18.61;46.07;101898.31;5052812;28;20062;-35
2021/11/08 05:39:42;;;;;;;738.70;693.03;;;;;;;18.75;45.88;101899.94;5048802;28;20446;-37
2021/11/08 05:42:08;;;;;;;778.13;729.13;;;;;;;18.78;46.17;101894.38;5053184;28;20040;-37
2021/11/08 05:44:38;;;;;;;839.10;785.60;;;;;;;18.79;46.13;101893.41;5056227;28;20462;-37
2021/11/08 05:47:04;;;;;;;866.88;812.15;;;;;;;18.75;45.92;101895.47;5054820;28;20047;-37
2021/11/08 05:49:31;;;;;;;878.92;822.15;;;;;;;18.72;46.24;101892.19;5051132;28;20034;-37
2021/11/08 05:51:57;;;;;;;877.10;820.50;;;;;;;18.70;46.27;101892.28;5051383;28;20040;-37
2021/11/08 05:54:23;;;;;;;907.08;848.95;;;;;;;18.70;46.28;101894.94;5052285;28;20027;-37
2021/11/08 06:00:07;;;;;;;855.92;801.55;;;;;;;18.68;46.30;101896.06;5056793;28;20408;-38
2021/11/08 06:51:19;;;;;;;886.15;830.55;;;;;;;18.65;46.02;101929.03;5053484;28;20123;-37
2021/11/08 06:53:47;;;;;;;861.08;807.20;;;;;;;18.67;45.98;101926.28;5045026;28;20020;-37
2021/11/08 06:56:22;;;;;;;889.38;832.42;;;;;;;18.59;46.25;101914.38;5041008;28;20060;-37
2021/11/08 06:58:49;;;;;;;889.00;833.55;;;;;;;18.60;46.08;101908.13;5050050;28;20029;-37
2021/11/08 07:01:15;;;;;;;898.83;841.75;;;;;;;18.58;45.99;101917.16;5054023;28;20051;-37
2021/11/08 07:03:41;;;;;;;876.75;821.13;;;;;;;18.54;46.15;101905.91;5054716;28;20025;-37
2021/11/08 07:06:07;;;;;;;872.10;816.92;;;;;;;18.55;46.12;101910.28;5054250;28;20025;-37
2021/11/08 07:08:34;;;;;;;857.85;804.67;;;;;;;18.57;45.83;101905.69;5052411;28;20032;-37
2021/11/08 07:11:00;;;;;;;883.58;827.25;;;;;;;18.59;45.79;101914.38;5053621;28;20402;-37
2021/11/08 07:13:26;;;;;;;848.17;794.58;;;;;;;18.57;46.02;101916.31;5054619;28;20182;-37
2021/11/08 07:15:52;;;;;;;883.67;827.65;;;;;;;18.56;46.02;101917.28;5051611;28;20091;-37
2021/11/08 07:18:19;;;;;;;857.85;805.00;;;;;;;18.54;45.78;101900.59;5035321;28;20058;-37
2021/11/08 07:20:45;;;;;;;904.03;846.80;;;;;;;18.52;45.93;101901.66;5035627;28;20036;-37
2021/11/08 07:23:12;;;;;;;879.55;823.85;;;;;;;18.49;46.08;101902.72;5050952;28;20029;-37
2021/11/08 07:25:38;;;;;;;841.35;789.20;;;;;;;18.49;45.98;101907.22;5054497;28;20456;-37
2021/11/08 07:28:09;;;;;;;872.83;818.33;;;;;;;18.49;46.06;101900.06;5053516;28;20103;-37
2021/11/08 07:30:35;;;;;;;835.53;782.75;;;;;;;18.40;46.12;101879.50;5053707;28;20035;-37
2021/11/08 07:33:02;;;;;;;857.35;803.45;;;;;;;18.45;45.95;101877.34;5053242;28;20028;-37
2021/11/08 07:35:28;;;;;;;872.90;817.30;;;;;;;18.45;45.87;101872.00;5053162;28;20033;-37
2021/11/08 07:37:54;;;;;;;886.55;831.13;;;;;;;18.44;46.03;101867.69;5051516;28;20029;-37
2021/11/08 07:40:20;;;;;;;886.10;829.45;;;;;;;18.45;46.07;101858.72;5052620;28;20086;-37
2021/11/08 07:42:48;;;;;;;801.42;751.95;;;;;;;18.46;46.00;101854.25;5042549;28;20080;-37
2021/11/08 07:45:15;;;;;;;799.38;749.67;;;;;;;18.48;45.73;101855.84;5050969;28;20107;-37
2021/11/08 07:47:41;;;;;;;889.00;832.33;;;;;;;18.45;45.70;101864.03;5053115;28;20151;-37
2021/11/08 07:50:08;;;;;;;786.30;737.97;;;;;;;18.42;45.78;101880.22;5039834;28;20029;-37
2021/11/08 07:52:34;;;;;;;818.22;767.83;;;;;;;18.39;46.01;101877.81;5050612;28;20450;-37
2021/11/08 07:55:00;;;;;;;841.10;786.70;;;;;;;18.37;45.85;101875.25;5044155;28;20111;-38
2021/11/08 07:57:26;;;;;;;826.38;773.17;;;;;;;18.36;46.17;101870.06;5054099;28;20029;-37
2021/11/08 07:59:53;;;;;;;877.30;822.35;;;;;;;18.31;46.29;101877.53;5052767;28;20090;-37
2021/11/08 08:02:19;;;;;;;879.60;824.67;;;;;;;18.32;46.09;101887.22;5051582;28;20078;-37
2021/11/08 08:04:45;;;;;;;890.28;833.88;;;;;;;18.32;46.04;101873.91;5050255;28;20764;-38
2021/11/08 08:07:11;;;;;;;854.83;801.88;;;;;;;18.30;46.25;101879.34;5050713;28;20082;-37
2021/11/08 08:09:38;;;;;;;895.10;838.65;;;;;;;18.27;46.09;101876.91;5046081;28;20023;-37
2021/11/08 08:12:05;;;;;;;864.15;810.78;;;;;;;18.29;45.98;101858.19;5044871;28;20029;-37
2021/11/08 08:14:31;;;;;;;857.58;803.92;;;;;;;18.33;45.94;101860.47;5052399;28;20402;-37
2021/11/08 08:17:00;;;;;;;852.85;799.47;;;;;;;18.30;45.98;101850.09;5053710;28;20502;-37
2021/11/08 08:19:26;;;;;;;815.88;765.70;;;;;;;18.30;45.84;101842.13;5051716;28;20036;-37
2021/11/08 08:21:53;;;;;;;858.80;804.90;;;;;;;18.30;45.96;101847.44;5043399;28;20078;-37
2021/11/08 08:24:19;;;;;;;860.13;805.63;;;;;;;18.29;45.93;101864.34;5051657;28;20086;-37
2021/11/08 08:26:45;;;;;;;892.80;836.28;;;;;;;18.26;46.06;101864.56;5051755;28;20102;-37
2021/11/08 08:29:12;;;;;;;870.40;815.08;;;;;;;18.23;46.20;101857.66;5051337;28;20443;-37
2021/11/08 08:31:46;;;;;;;867.72;812.55;;;;;;;18.21;46.07;101862.25;5054184;28;20029;-37
2021/11/08 08:34:13;;;;;;;839.03;787.45;;;;;;;18.20;46.12;101847.25;5050558;28;20028;-37
2021/11/08 08:36:40;;;;;;;869.72;815.17;;;;;;;18.16;46.13;101834.31;5067143;28;20435;-37
2021/11/08 08:39:07;;;;;;;891.45;834.55;;;;;;;18.17;46.17;101825.38;5053313;28;20043;-37
2021/11/08 08:41:34;;;;;;;865.83;812.25;;;;;;;18.19;46.00;101818.13;5053538;28;20025;-37
2021/11/08 08:44:00;;;;;;;868.85;814.10;;;;;;;18.20;45.88;101815.34;5053175;28;20025;-37
2021/11/08 08:46:26;;;;;;;884.25;829.75;;;;;;;18.21;45.89;101818.88;5053996;28;20032;-37
2021/11/08 08:48:54;;;;;;;858.55;805.30;;;;;;;18.15;45.83;101804.22;5052836;28;20037;-37
2021/11/08 08:51:21;;;;;;;860.05;806.60;;;;;;;18.18;45.96;101811.97;5052848;28;20028;-37
2021/11/08 08:53:47;;;;;;;892.53;836.50;;;;;;;18.16;46.01;101805.91;5051947;28;20029;-36
2021/11/08 08:56:16;;;;;;;836.33;784.85;;;;;;;18.10;46.03;101803.69;5054020;28;20025;-37
2021/11/08 08:58:42;;;;;;;859.90;806.25;;;;;;;18.11;45.95;101801.91;5053047;28;20021;-37
2021/11/08 09:01:09;;;;;;;875.13;820.35;;;;;;;18.13;45.94;101805.31;5052414;28;20362;-37
2021/11/08 09:03:35;;;;;;;870.22;814.83;;;;;;;18.07;46.01;101811.06;5051546;28;20029;-37
2021/11/08 09:06:02;;;;;;;850.45;797.50;;;;;;;18.08;45.88;101804.78;5051650;28;20025;-37
2021/11/08 09:08:28;;;;;;;901.00;844.42;;;;;;;18.07;45.98;101814.59;5052629;28;20025;-37
2021/11/08 09:10:54;;;;;;;848.85;796.20;;;;;;;18.06;45.85;101823.50;5051619;28;20028;-37
2021/11/08 09:13:20;;;;;;;872.45;817.90;;;;;;;18.07;46.06;101827.88;5066611;28;20033;-37
2021/11/08 09:15:48;;;;;;;864.55;810.80;;;;;;;18.05;45.90;101819.16;5052833;28;20044;-37
2021/11/08 09:18:16;;;;;;;834.95;783.40;;;;;;;18.06;45.90;101812.88;5052623;28;20448;-37
2021/11/08 09:20:43;;;;;;;859.20;806.17;;;;;;;18.04;45.81;101807.66;5037917;28;20354;-37
2021/11/08 09:23:12;;;;;;;817.17;766.60;;;;;;;18.03;46.04;101819.28;5050455;28;20029;-37
2021/11/08 09:25:39;;;;;;;870.22;816.35;;;;;;;18.03;45.82;101813.09;5056193;28;21421;-37
2021/11/08 09:28:06;;;;;;;835.70;783.65;;;;;;;17.99;45.74;101820.44;5052502;28;20029;-37
2021/11/08 09:30:36;;;;;;;874.20;819.75;;;;;;;17.98;46.07;101813.47;5056725;28;20020;-37
2021/11/08 09:33:03;;;;;;;843.00;790.05;;;;;;;17.96;45.84;101802.09;5054091;28;20024;-37
2021/11/08 09:35:32;;;;;;;861.90;808.15;;;;;;;17.95;45.97;101797.72;5056296;28;20048;-37
2021/11/08 09:38:01;;;;;;;834.75;783.70;;;;;;;17.97;45.82;101800.28;5057253;28;20025;-37
2021/11/08 09:40:27;;;;;;;845.72;793.45;;;;;;;17.96;45.82;101793.25;5054624;28;20031;-37
2021/11/08 09:42:54;;;;;;;822.30;771.60;;;;;;;17.99;45.80;101801.00;5056377;28;20025;-37
2021/11/08 09:45:21;;;;;;;841.17;789.67;;;;;;;17.93;46.00;101793.50;5057452;28;20022;-37
2021/11/08 09:47:47;;;;;;;866.20;812.78;;;;;;;17.92;45.96;101795.28;5037395;28;20048;-37
2021/11/08 09:50:14;;;;;;;827.47;777.22;;;;;;;17.94;45.86;101803.16;5046159;28;20032;-37
2021/11/08 09:52:44;;;;;;;852.95;799.65;;;;;;;17.85;46.03;101794.91;5043867;28;20025;-37
2021/11/08 09:55:13;;;;;;;846.25;794.58;;;;;;;17.57;45.61;101750.91;5071270;28;20039;-37
2021/11/08 09:57:39;;;;;;;863.53;809.80;;;;;;;17.91;45.97;101811.34;5056577;28;20373;-37
2021/11/08 10:00:25;;;;;;;878.85;823.83;;;;;;;17.91;45.91;101822.84;5050582;28;20362;-37
2021/11/08 10:02:59;;;;;;;851.47;799.88;;;;;;;17.89;45.86;101818.59;5055480;28;20412;-37
2021/11/08 10:05:33;;;;;;;836.70;784.83;;;;;;;17.88;45.89;101816.91;5045696;28;20025;-37
2021/11/08 10:08:00;;;;;;;862.72;809.47;;;;;;;17.86;45.76;101820.50;5053230;28;21450;-37
2021/11/08 10:10:27;;;;;;;842.20;790.13;;;;;;;17.83;45.86;101820.69;5056091;28;20021;-37
2021/11/08 10:13:06;;;;;;;847.78;795.42;;;;;;;17.82;45.91;101829.66;5056242;28;20025;-36
2021/11/08 10:15:32;;;;;;;871.22;817.63;;;;;;;17.81;45.82;101825.28;5055248;28;20374;-37
2021/11/08 10:17:58;;;;;;;845.17;793.10;;;;;;;17.81;45.81;101822.63;5054946;28;20465;-36
2021/11/08 10:20:35;;;;;;;877.83;823.47;;;;;;;17.84;45.89;101821.56;5041120;28;20026;-37
2021/11/08 10:23:01;;;;;;;847.78;794.90;;;;;;;17.84;45.87;101837.50;5047799;28;20047;-37
2021/11/08 10:25:28;;;;;;;848.42;795.88;;;;;;;17.85;45.62;101828.56;5055793;28;20082;-37
2021/11/08 10:27:55;;;;;;;834.78;783.35;;;;;;;17.79;45.78;101813.91;5036142;28;20025;-37
2021/11/08 10:30:32;;;;;;;832.08;781.17;;;;;;;17.70;45.90;101808.44;5038979;28;20037;-38
2021/11/08 10:33:10;;;;;;;857.03;803.35;;;;;;;17.78;45.87;101827.31;5056725;28;20025;-37
2021/11/08 10:35:42;;;;;;;843.67;791.25;;;;;;;17.79;45.71;101826.38;5052450;28;20036;-37
2021/11/08 10:38:09;;;;;;;841.92;790.05;;;;;;;17.78;45.71;101822.00;5048421;28;20136;-37
2021/11/08 10:40:41;;;;;;;847.70;795.75;;;;;;;17.74;45.83;101810.75;5043922;28;20041;-37
2021/11/08 10:43:08;;;;;;;813.05;763.60;;;;;;;17.63;45.77;101765.53;5045841;28;20444;-37
2021/11/08 10:45:34;;;;;;;828.67;778.20;;;;;;;17.73;45.70;101760.38;5053532;28;20117;-37
2021/11/08 10:48:03;;;;;;;827.60;776.78;;;;;;;17.68;45.86;101737.66;5045837;28;20355;-37
2021/11/08 10:50:40;;;;;;;883.05;828.10;;;;;;;17.71;45.81;101741.88;5055588;28;20362;-37
2021/11/08 10:53:06;;;;;;;842.38;790.65;;;;;;;17.75;45.61;101745.19;5035885;28;20040;-37
2021/11/08 10:55:32;;;;;;;846.08;794.17;;;;;;;17.73;45.83;101747.09;5043345;28;20064;-37
2021/11/08 10:58:20;;;;;;;839.25;787.95;;;;;;;17.73;45.44;101737.34;5041196;28;20029;-37
2021/11/08 11:00:56;;;;;;;799.00;750.90;;;;;;;17.70;45.71;101734.06;5039611;28;20036;-37
2021/11/08 11:03:23;;;;;;;800.53;751.85;;;;;;;17.72;45.67;101734.78;5045727;28;20033;-37
2021/11/08 11:06:04;;;;;;;753.55;707.80;;;;;;;17.68;45.78;101748.28;5053410;28;20028;-37
2021/11/08 11:08:31;;;;;;;776.92;729.33;;;;;;;17.69;45.77;101743.81;5043575;28;20067;-37
2021/11/08 11:11:00;;;;;;;800.53;752.10;;;;;;;17.64;45.82;101741.53;5039203;28;20349;-37
2021/11/08 11:13:27;;;;;;;821.72;772.08;;;;;;;17.66;45.69;101746.72;5052574;28;20041;-37
2021/11/08 11:16:01;;;;;;;848.72;797.13;;;;;;;17.61;45.84;101756.84;5036349;28;20037;-37
2021/11/08 11:18:34;;;;;;;833.00;781.60;;;;;;;17.64;45.84;101760.09;5053833;28;20029;-37
2021/11/08 11:21:15;;;;;;;853.22;800.38;;;;;;;17.61;45.80;101760.31;5054528;28;20029;-37
2021/11/08 11:23:49;;;;;;;834.55;783.08;;;;;;;17.59;45.92;101750.78;5037298;28;20028;-37
2021/11/08 11:26:17;;;;;;;808.17;759.70;;;;;;;17.66;45.66;101749.38;5047745;28;20027;-37
2021/11/08 11:28:45;;;;;;;802.38;753.63;;;;;;;17.51;45.65;101718.63;5053794;28;20068;-37
2021/11/08 11:31:14;;;;;;;831.80;780.47;;;;;;;17.60;45.84;101740.03;5052717;28;20047;-37
2021/11/08 11:33:40;;;;;;;791.78;743.13;;;;;;;17.61;45.79;101738.25;5050489;28;20483;-37
2021/11/08 11:36:09;;;;;;;844.47;792.45;;;;;;;17.58;45.82;101725.19;5053708;28;20028;-37
2021/11/08 11:38:41;;;;;;;842.92;791.13;;;;;;;17.59;45.69;101724.22;5053370;28;20056;-37
2021/11/08 11:41:16;;;;;;;828.03;777.95;;;;;;;17.59;45.88;101717.09;5040984;28;20063;-37
2021/11/08 11:43:43;;;;;;;751.92;707.83;;;;;;;17.55;45.90;101714.78;5054325;28;20037;-37
2021/11/08 11:46:20;;;;;;;828.72;778.33;;;;;;;17.55;45.88;101712.13;5053448;28;20032;-37
2021/11/08 11:48:46;;;;;;;827.92;778.15;;;;;;;17.55;45.93;101718.28;5035159;28;20367;-37
2021/11/08 11:51:18;;;;;;;819.22;769.35;;;;;;;17.52;45.91;101723.81;5044868;28;20577;-37
2021/11/08 11:53:44;;;;;;;790.15;742.22;;;;;;;17.54;45.89;101721.91;5048764;28;20470;-37
2021/11/08 11:56:11;;;;;;;844.15;792.85;;;;;;;17.54;45.91;101707.78;5053755;28;20116;-36
2021/11/08 11:58:38;;;;;;;793.55;745.63;;;;;;;17.56;45.80;101719.97;5048732;28;20025;-37
2021/11/08 12:01:05;;;;;;;835.58;785.28;;;;;;;17.59;45.72;101713.59;5047989;28;20035;-37
2021/11/08 12:03:32;;;;;;;797.70;749.15;;;;;;;17.55;45.88;101713.00;5044254;28;20393;-37
2021/11/08 12:05:58;;;;;;;832.22;781.33;;;;;;;17.56;45.82;101706.69;5052181;28;20107;-37
2021/11/08 12:08:29;;;;;;;855.08;802.13;;;;;;;17.50;45.98;101701.84;5052460;28;20397;-37
2021/11/08 12:10:55;;;;;;;822.67;773.20;;;;;;;17.51;46.04;101705.34;5066862;28;20108;-37
2021/11/08 12:13:23;;;;;;;871.05;817.90;;;;;;;17.50;45.97;101696.53;5054030;28;20086;-36
2021/11/08 12:15:49;;;;;;;830.78;779.45;;;;;;;17.43;45.91;101690.81;5053430;28;20033;-37
2021/11/08 12:18:16;;;;;;;848.72;796.67;;;;;;;17.49;45.97;101702.78;5048210;28;20025;-37
2021/11/08 12:20:45;;;;;;;854.63;803.20;;;;;;;17.45;45.89;101696.88;5054191;28;20025;-36
2021/11/08 12:23:18;;;;;;;823.22;773.05;;;;;;;17.44;46.04;101697.81;5047371;28;20115;-37
2021/11/08 12:25:45;;;;;;;791.70;744.28;;;;;;;17.44;45.97;101687.19;5048101;28;20031;-37
2021/11/08 12:28:16;;;;;;;836.50;785.42;;;;;;;17.46;46.04;101689.75;5054107;28;20095;-37
2021/11/08 12:30:48;;;;;;;817.13;767.78;;;;;;;17.48;46.12;101690.47;5052401;28;20071;-37
2021/11/08 12:33:29;;;;;;;825.05;775.83;;;;;;;17.50;45.97;101685.91;5053009;28;20613;-37
2021/11/08 12:36:05;;;;;;;803.80;755.55;;;;;;;17.45;46.12;101688.91;5050571;28;20032;-37
2021/11/08 12:38:35;;;;;;;798.70;749.97;;;;;;;17.42;46.12;101689.13;5055600;28;20025;-37
2021/11/08 12:41:07;;;;;;;803.17;754.80;;;;;;;17.44;45.85;101689.84;5040952;28;20032;-37
2021/11/08 12:43:33;;;;;;;825.70;775.33;;;;;;;17.42;46.15;101688.28;5053411;28;20036;-37
2021/11/08 12:46:20;;;;;;;814.70;764.22;;;;;;;17.41;46.22;101694.53;5053465;28;20029;-37
2021/11/08 12:48:47;;;;;;;783.80;735.80;;;;;;;17.40;46.10;101680.41;5053895;28;20520;-37
2021/11/08 12:51:14;;;;;;;835.35;784.53;;;;;;;17.36;46.20;101684.28;5054168;28;20023;-37